Time;durP1;ratioP1;P1;durP2;ratioP2;P2;SDS_P1;SDS_P2;PMS_P1;PMS_P2;Temp;Humidity;BMP_temperature;BMP_pressure;BME280_temperature;BME280_humidity;BME280_pressure;Samples;Min_cycle;Max_cycle;Signal;HPM_P1;HPM_P2
2021/08/18 00:01:39;;;;;;;;;8.33;8.33;;;;;;;;5165700;27;45555;-79
2021/08/18 00:04:04;;;;;;;;;8.33;8.33;;;;;;;;5165385;27;45171;-79
2021/08/18 00:06:29;;;;;;;;;8.00;8.00;;;;;;;;5165421;27;45269;-79
2021/08/18 00:08:55;;;;;;;;;12.33;10.67;;;;;;;;5165790;27;45277;-79
2021/08/18 00:11:20;;;;;;;;;10.67;8.67;;;;;;;;5165521;27;45274;-79
2021/08/18 00:13:45;;;;;;;;;11.33;9.33;;;;;;;;5165423;27;45247;-79
2021/08/18 00:16:11;;;;;;;;;10.00;9.33;;;;;;;;5165373;27;45271;-79
2021/08/18 00:18:37;;;;;;;;;7.67;7.67;;;;;;;;5146462;27;45368;-79
2021/08/18 00:21:02;;;;;;;;;9.00;9.00;;;;;;;;5180144;27;45396;-79
2021/08/18 00:23:27;;;;;;;;;9.67;9.33;;;;;;;;5186226;27;45953;-79
2021/08/18 00:25:54;;;;;;;;;8.00;7.33;;;;;;;;5186015;27;45381;-78
2021/08/18 00:28:20;;;;;;;;;10.00;8.33;;;;;;;;5186603;27;45352;-79
2021/08/18 00:30:45;;;;;;;;;8.67;8.67;;;;;;;;5173036;27;45480;-79
2021/08/18 00:33:11;;;;;;;;;8.33;8.33;;;;;;;;5164974;27;45988;-79
2021/08/18 00:35:36;;;;;;;;;8.67;8.67;;;;;;;;5165187;27;45261;-79
2021/08/18 00:38:02;;;;;;;;;8.00;8.00;;;;;;;;5165150;27;45269;-79
2021/08/18 00:40:27;;;;;;;;;8.33;7.67;;;;;;;;5164856;27;45237;-79
2021/08/18 00:42:52;;;;;;;;;7.67;7.33;;;;;;;;5164275;27;45492;-79
2021/08/18 00:45:20;;;;;;;;;6.67;6.67;;;;;;;;5165062;27;45284;-79
2021/08/18 00:47:46;;;;;;;;;7.33;7.33;;;;;;;;5164988;27;45193;-79
2021/08/18 00:50:13;;;;;;;;;6.33;6.33;;;;;;;;5164869;27;45488;-79
2021/08/18 00:52:38;;;;;;;;;8.00;7.67;;;;;;;;5164644;27;45250;-79
2021/08/18 00:55:04;;;;;;;;;8.67;7.67;;;;;;;;5164759;27;45303;-80
2021/08/18 00:57:30;;;;;;;;;8.00;7.33;;;;;;;;5146043;27;45370;-79
2021/08/18 00:59:55;;;;;;;;;8.00;8.00;;;;;;;;5164834;27;45405;-79
2021/08/18 01:02:21;;;;;;;;;8.67;7.33;;;;;;;;5164518;27;46813;-80
2021/08/18 01:04:46;;;;;;;;;9.33;8.33;;;;;;;;5164753;27;45344;-79
2021/08/18 01:07:12;;;;;;;;;6.00;6.00;;;;;;;;5164732;27;45279;-79
2021/08/18 01:09:38;;;;;;;;;7.00;7.00;;;;;;;;5164755;27;45170;-79
2021/08/18 01:12:03;;;;;;;;;7.00;6.33;;;;;;;;5164423;27;45243;-79
2021/08/18 01:14:28;;;;;;;;;8.67;7.33;;;;;;;;5164533;27;45253;-79
2021/08/18 01:16:54;;;;;;;;;8.00;8.00;;;;;;;;5164645;27;45155;-80
2021/08/18 01:19:20;;;;;;;;;8.00;8.00;;;;;;;;5164102;27;45180;-80
2021/08/18 01:21:47;;;;;;;;;9.00;9.00;;;;;;;;5164221;27;45218;-79
2021/08/18 01:24:12;;;;;;;;;6.00;5.67;;;;;;;;5164441;27;45388;-79
2021/08/18 01:26:38;;;;;;;;;10.00;7.67;;;;;;;;5164481;27;45247;-79
2021/08/18 01:29:04;;;;;;;;;6.33;6.33;;;;;;;;5164314;27;45326;-79
2021/08/18 01:31:29;;;;;;;;;8.33;6.67;;;;;;;;5163769;27;45944;-80
2021/08/18 01:33:57;;;;;;;;;7.33;7.33;;;;;;;;5164101;27;45378;-79
2021/08/18 01:36:22;;;;;;;;;8.67;7.67;;;;;;;;5164218;27;45297;-79
2021/08/18 01:38:48;;;;;;;;;8.67;7.00;;;;;;;;5162929;27;45296;-79
2021/08/18 01:41:13;;;;;;;;;10.00;8.67;;;;;;;;5163685;27;45334;-79
2021/08/18 01:43:38;;;;;;;;;9.00;8.00;;;;;;;;5163974;27;45307;-78
2021/08/18 01:46:04;;;;;;;;;8.33;7.33;;;;;;;;5164180;27;45306;-79
2021/08/18 01:48:30;;;;;;;;;8.67;8.67;;;;;;;;5163715;27;45526;-79
2021/08/18 01:50:57;;;;;;;;;7.67;7.67;;;;;;;;5163881;27;45202;-79
2021/08/18 01:53:23;;;;;;;;;8.00;7.00;;;;;;;;5163799;27;45362;-79
2021/08/18 01:55:48;;;;;;;;;9.00;8.00;;;;;;;;5164001;27;45372;-79
2021/08/18 01:58:13;;;;;;;;;7.00;7.00;;;;;;;;5163563;27;45372;-79
2021/08/18 02:00:39;;;;;;;;;7.00;7.00;;;;;;;;5163708;27;46229;-79
2021/08/18 02:03:04;;;;;;;;;9.33;7.00;;;;;;;;5144734;27;45316;-79
2021/08/18 02:05:30;;;;;;;;;6.33;6.33;;;;;;;;5163919;27;45249;-79
2021/08/18 02:07:55;;;;;;;;;6.00;5.67;;;;;;;;5163535;27;45434;-79
2021/08/18 02:10:22;;;;;;;;;7.33;5.00;;;;;;;;5163572;27;45270;-79
2021/08/18 02:12:47;;;;;;;;;9.33;8.00;;;;;;;;5163535;27;45289;-79
2021/08/18 02:15:15;;;;;;;;;7.00;6.00;;;;;;;;5163573;27;45268;-79
2021/08/18 02:17:40;;;;;;;;;9.00;7.33;;;;;;;;5162876;27;45238;-78
2021/08/18 02:20:07;;;;;;;;;6.67;6.67;;;;;;;;5163062;27;45253;-78
2021/08/18 02:22:33;;;;;;;;;6.67;6.00;;;;;;;;5163273;27;45286;-79
2021/08/18 02:24:58;;;;;;;;;7.00;7.00;;;;;;;;5163573;27;45470;-79
2021/08/18 02:27:24;;;;;;;;;8.00;8.00;;;;;;;;5163364;27;45328;-79
2021/08/18 02:29:49;;;;;;;;;9.67;8.00;;;;;;;;5163131;27;45311;-78
2021/08/18 02:32:14;;;;;;;;;6.00;6.00;;;;;;;;5162863;27;45453;-78
2021/08/18 02:34:40;;;;;;;;;5.33;5.33;;;;;;;;5163369;27;45267;-79
2021/08/18 02:37:05;;;;;;;;;8.00;6.00;;;;;;;;5163143;27;45373;-79
2021/08/18 02:39:30;;;;;;;;;6.67;6.67;;;;;;;;5162939;27;45274;-79
2021/08/18 02:41:56;;;;;;;;;9.33;7.67;;;;;;;;5163113;27;45329;-79
2021/08/18 02:44:21;;;;;;;;;7.33;7.33;;;;;;;;5163280;27;45282;-79
2021/08/18 02:46:46;;;;;;;;;6.00;6.00;;;;;;;;5163039;27;45306;-79
2021/08/18 02:49:12;;;;;;;;;7.33;7.33;;;;;;;;5162465;27;46196;-79
2021/08/18 02:51:37;;;;;;;;;6.00;6.00;;;;;;;;5162881;27;45327;-79
2021/08/18 02:54:02;;;;;;;;;8.67;5.33;;;;;;;;5163098;27;45257;-79
2021/08/18 02:56:27;;;;;;;;;6.33;6.33;;;;;;;;5162836;27;45136;-79
2021/08/18 02:58:53;;;;;;;;;7.00;6.00;;;;;;;;5162857;27;45257;-79
2021/08/18 03:01:18;;;;;;;;;5.67;5.00;;;;;;;;5162890;27;45313;-79
2021/08/18 03:03:43;;;;;;;;;6.67;6.67;;;;;;;;5162815;27;45660;-79
2021/08/18 03:06:09;;;;;;;;;5.33;4.00;;;;;;;;5143717;27;47002;-79
2021/08/18 03:08:34;;;;;;;;;7.00;7.00;;;;;;;;5162694;27;45207;-79
2021/08/18 03:10:59;;;;;;;;;5.67;5.67;;;;;;;;5162784;27;45202;-79
2021/08/18 03:13:25;;;;;;;;;4.67;4.33;;;;;;;;5162980;27;45245;-79
2021/08/18 03:15:50;;;;;;;;;6.00;5.33;;;;;;;;5162687;27;45211;-79
2021/08/18 03:18:16;;;;;;;;;5.67;5.00;;;;;;;;5162246;27;46191;-79
2021/08/18 03:20:41;;;;;;;;;6.33;6.33;;;;;;;;5162533;27;45210;-79
2021/08/18 03:23:06;;;;;;;;;6.67;6.33;;;;;;;;5162509;27;45211;-79
2021/08/18 03:25:32;;;;;;;;;5.33;5.00;;;;;;;;5162571;27;45221;-79
2021/08/18 03:27:57;;;;;;;;;8.00;6.00;;;;;;;;5162369;27;45363;-79
2021/08/18 03:30:22;;;;;;;;;7.00;5.67;;;;;;;;5152848;27;45332;-79
2021/08/18 03:32:48;;;;;;;;;8.00;6.33;;;;;;;;5141426;27;45454;-80
2021/08/18 03:35:13;;;;;;;;;5.67;5.33;;;;;;;;5141367;27;45393;-79
2021/08/18 03:37:38;;;;;;;;;6.67;6.67;;;;;;;;5141286;27;46088;-79
2021/08/18 03:40:04;;;;;;;;;8.00;6.00;;;;;;;;5141281;27;45262;-79
2021/08/18 03:42:29;;;;;;;;;7.33;6.00;;;;;;;;5141616;27;45310;-80
2021/08/18 03:44:55;;;;;;;;;8.33;7.33;;;;;;;;5122634;27;46217;-79
2021/08/18 03:47:20;;;;;;;;;5.33;5.33;;;;;;;;5141101;27;46089;-79
2021/08/18 03:49:45;;;;;;;;;7.00;5.00;;;;;;;;5141347;27;45300;-79
2021/08/18 03:52:11;;;;;;;;;7.33;7.33;;;;;;;;5141292;27;45661;-79
2021/08/18 03:54:36;;;;;;;;;8.00;8.00;;;;;;;;5141377;27;45304;-79
2021/08/18 03:57:01;;;;;;;;;7.00;7.00;;;;;;;;5141052;27;45983;-79
2021/08/18 03:59:27;;;;;;;;;6.67;6.67;;;;;;;;5141241;27;45366;-80
2021/08/18 04:01:52;;;;;;;;;7.00;7.00;;;;;;;;5144014;27;45304;-79
2021/08/18 04:04:17;;;;;;;;;7.00;7.00;;;;;;;;5144486;27;45204;-79
2021/08/18 04:06:43;;;;;;;;;7.67;6.00;;;;;;;;5144521;27;45174;-80
2021/08/18 04:09:08;;;;;;;;;4.00;4.00;;;;;;;;5144716;27;45229;-79
2021/08/18 04:11:33;;;;;;;;;5.00;5.00;;;;;;;;5144714;27;45902;-80
2021/08/18 04:13:59;;;;;;;;;8.00;7.67;;;;;;;;5144627;27;45393;-79
2021/08/18 04:16:24;;;;;;;;;5.33;5.33;;;;;;;;5144449;27;45233;-79
2021/08/18 04:18:49;;;;;;;;;5.67;5.67;;;;;;;;5144341;27;45301;-80
2021/08/18 04:21:15;;;;;;;;;6.33;6.00;;;;;;;;5160895;27;45348;-79
2021/08/18 04:23:40;;;;;;;;;7.00;5.67;;;;;;;;5165436;27;45435;-79
2021/08/18 04:26:06;;;;;;;;;7.00;7.00;;;;;;;;5165303;27;45550;-79
2021/08/18 04:28:31;;;;;;;;;6.33;6.33;;;;;;;;5165345;27;45209;-79
2021/08/18 04:30:56;;;;;;;;;7.00;6.00;;;;;;;;5165004;27;45939;-79
2021/08/18 04:33:22;;;;;;;;;6.00;6.00;;;;;;;;5165116;27;45431;-79
2021/08/18 04:35:47;;;;;;;;;7.00;7.00;;;;;;;;5165147;27;45273;-79
2021/08/18 04:38:12;;;;;;;;;5.00;5.00;;;;;;;;5164959;27;45273;-79
2021/08/18 04:40:38;;;;;;;;;6.00;5.00;;;;;;;;5164714;27;45305;-79
2021/08/18 04:43:03;;;;;;;;;11.00;9.67;;;;;;;;5164977;27;45540;-79
2021/08/18 04:45:28;;;;;;;;;9.67;8.00;;;;;;;;5164966;27;45282;-79
2021/08/18 04:47:54;;;;;;;;;7.00;6.67;;;;;;;;5164709;27;45347;-79
2021/08/18 04:50:19;;;;;;;;;6.67;5.67;;;;;;;;5165227;27;45250;-79
2021/08/18 04:52:45;;;;;;;;;8.33;7.00;;;;;;;;5164739;27;45403;-79
2021/08/18 04:55:12;;;;;;;;;7.67;7.00;;;;;;;;5164867;27;45438;-79
2021/08/18 04:57:37;;;;;;;;;8.33;8.33;;;;;;;;5164775;27;45321;-79
2021/08/18 05:00:03;;;;;;;;;6.67;6.67;;;;;;;;5164907;27;45263;-78
2021/08/18 05:02:29;;;;;;;;;9.33;8.00;;;;;;;;5164474;27;45336;-78
2021/08/18 05:04:54;;;;;;;;;9.00;8.00;;;;;;;;5164662;27;45244;-79
2021/08/18 05:07:19;;;;;;;;;10.33;9.00;;;;;;;;5164446;27;45235;-79
2021/08/18 05:09:45;;;;;;;;;10.00;7.67;;;;;;;;5164803;27;45382;-79
2021/08/18 05:12:10;;;;;;;;;10.00;10.00;;;;;;;;5164491;27;45261;-79
2021/08/18 05:14:36;;;;;;;;;7.67;7.67;;;;;;;;5164432;27;45262;-79
2021/08/18 05:17:01;;;;;;;;;11.33;11.33;;;;;;;;5164281;27;45256;-79
2021/08/18 05:19:26;;;;;;;;;9.67;9.00;;;;;;;;5164300;27;45270;-78
2021/08/18 05:21:52;;;;;;;;;7.67;6.67;;;;;;;;5164195;27;45645;-81
2021/08/18 05:24:17;;;;;;;;;10.00;10.00;;;;;;;;5164203;27;45301;-78
2021/08/18 05:26:42;;;;;;;;;9.33;8.33;;;;;;;;5163912;27;45341;-79
2021/08/18 05:29:08;;;;;;;;;7.33;7.33;;;;;;;;5163955;27;45335;-78
2021/08/18 05:31:33;;;;;;;;;5.00;4.00;;;;;;;;5163639;27;45350;-79
2021/08/18 05:33:59;;;;;;;;;10.00;8.00;;;;;;;;5163861;27;46191;-78
2021/08/18 05:36:24;;;;;;;;;8.67;8.67;;;;;;;;5163999;27;45388;-78
2021/08/18 05:38:49;;;;;;;;;9.67;8.00;;;;;;;;5162073;27;45371;-78
2021/08/18 05:41:15;;;;;;;;;10.33;8.67;;;;;;;;5162328;27;45356;-78
2021/08/18 05:43:40;;;;;;;;;10.33;9.33;;;;;;;;5162339;27;45387;-78
2021/08/18 05:46:06;;;;;;;;;10.67;9.67;;;;;;;;5162485;27;45485;-78
2021/08/18 05:48:31;;;;;;;;;8.00;8.00;;;;;;;;5162257;27;45286;-78
2021/08/18 05:50:57;;;;;;;;;9.00;9.00;;;;;;;;5162637;27;45384;-79
2021/08/18 05:53:22;;;;;;;;;13.33;11.33;;;;;;;;5159689;27;45674;-78
2021/08/18 05:55:48;;;;;;;;;10.00;9.00;;;;;;;;5162239;27;45372;-78
2021/08/18 05:58:14;;;;;;;;;11.33;10.00;;;;;;;;5162274;27;45515;-78
2021/08/18 06:00:39;;;;;;;;;12.00;10.33;;;;;;;;5162427;27;45443;-78
2021/08/18 06:03:04;;;;;;;;;11.00;10.67;;;;;;;;5162029;27;45486;-79
2021/08/18 06:05:30;;;;;;;;;11.00;9.67;;;;;;;;5162159;27;45510;-80
2021/08/18 06:07:56;;;;;;;;;10.00;10.00;;;;;;;;5161726;27;45471;-79
2021/08/18 06:10:21;;;;;;;;;8.67;8.00;;;;;;;;5161916;27;45420;-77
2021/08/18 06:12:46;;;;;;;;;12.33;11.67;;;;;;;;5161986;27;45426;-82
2021/08/18 06:15:13;;;;;;;;;12.67;11.00;;;;;;;;5161993;27;45318;-82
2021/08/18 06:17:38;;;;;;;;;8.67;8.67;;;;;;;;5142971;27;45345;-82
2021/08/18 06:20:04;;;;;;;;;11.00;10.33;;;;;;;;5159066;27;45284;-81
2021/08/18 06:22:29;;;;;;;;;11.33;11.33;;;;;;;;5151213;27;45363;-82
2021/08/18 06:24:56;;;;;;;;;11.00;11.00;;;;;;;;5151713;27;45355;-80
2021/08/18 06:27:22;;;;;;;;;10.67;10.00;;;;;;;;5151306;27;45283;-82
2021/08/18 06:29:48;;;;;;;;;10.33;9.33;;;;;;;;5158619;27;45252;-81
2021/08/18 06:32:13;;;;;;;;;10.33;10.33;;;;;;;;5141366;27;45235;-81
2021/08/18 06:34:39;;;;;;;;;9.00;9.00;;;;;;;;5141972;27;45204;-81
2021/08/18 06:37:05;;;;;;;;;9.00;8.33;;;;;;;;5142096;27;45131;-80
2021/08/18 06:39:31;;;;;;;;;10.00;9.67;;;;;;;;5142150;27;45305;-81
2021/08/18 06:41:57;;;;;;;;;9.00;9.00;;;;;;;;5141879;27;45308;-82
2021/08/18 06:44:22;;;;;;;;;12.33;8.33;;;;;;;;5141997;27;45396;-82
2021/08/18 06:46:48;;;;;;;;;9.00;8.00;;;;;;;;5142239;27;45456;-82
2021/08/18 06:49:13;;;;;;;;;10.00;10.00;;;;;;;;5141794;27;45502;-81
2021/08/18 06:51:38;;;;;;;;;10.33;9.00;;;;;;;;5141994;27;45308;-81
2021/08/18 06:54:04;;;;;;;;;10.67;10.67;;;;;;;;5142069;27;45390;-81
2021/08/18 06:56:29;;;;;;;;;13.00;11.00;;;;;;;;5134810;27;45357;-81
2021/08/18 06:58:55;;;;;;;;;9.33;9.33;;;;;;;;5140054;27;45392;-80
2021/08/18 07:01:20;;;;;;;;;12.00;11.00;;;;;;;;5135555;27;45630;-81
2021/08/18 07:03:45;;;;;;;;;10.67;10.67;;;;;;;;5139339;27;45409;-81
2021/08/18 07:06:11;;;;;;;;;11.00;9.00;;;;;;;;5141927;27;45318;-80
2021/08/18 07:08:36;;;;;;;;;11.33;10.67;;;;;;;;5143142;27;45342;-81
2021/08/18 07:11:01;;;;;;;;;11.33;10.33;;;;;;;;5143176;27;46333;-81
2021/08/18 07:13:27;;;;;;;;;10.67;9.67;;;;;;;;5144535;27;45296;-80
2021/08/18 07:15:52;;;;;;;;;10.00;9.00;;;;;;;;5126026;27;45460;-80
2021/08/18 07:18:17;;;;;;;;;12.67;12.00;;;;;;;;5120214;27;45471;-79
2021/08/18 07:20:43;;;;;;;;;12.00;11.00;;;;;;;;5140471;27;45352;-80
2021/08/18 07:23:08;;;;;;;;;12.00;12.00;;;;;;;;5162062;27;45229;-79
2021/08/18 07:25:33;;;;;;;;;15.00;13.67;;;;;;;;5162593;27;45467;-80
2021/08/18 07:27:59;;;;;;;;;10.00;10.00;;;;;;;;5162396;27;45475;-80
2021/08/18 07:30:24;;;;;;;;;12.00;10.33;;;;;;;;5153158;27;45460;-79
2021/08/18 07:32:50;;;;;;;;;9.67;9.00;;;;;;;;5160608;27;45351;-80
2021/08/18 07:35:16;;;;;;;;;12.33;11.33;;;;;;;;5141380;27;45270;-77
2021/08/18 07:37:41;;;;;;;;;11.33;11.33;;;;;;;;5147289;27;45474;-79
2021/08/18 07:40:07;;;;;;;;;11.00;9.67;;;;;;;;5156410;27;45873;-82
2021/08/18 07:42:32;;;;;;;;;14.00;11.67;;;;;;;;5154276;27;46682;-81
2021/08/18 07:44:58;;;;;;;;;12.33;11.00;;;;;;;;5165629;27;45528;-80
2021/08/18 07:47:23;;;;;;;;;12.00;10.33;;;;;;;;5165058;27;45478;-81
2021/08/18 07:49:48;;;;;;;;;9.00;9.00;;;;;;;;5164984;27;46188;-79
2021/08/18 07:52:14;;;;;;;;;7.67;7.33;;;;;;;;5164464;27;45505;-82
2021/08/18 07:54:39;;;;;;;;;9.00;9.00;;;;;;;;5154372;27;45375;-83
2021/08/18 07:57:05;;;;;;;;;10.33;10.33;;;;;;;;5158682;27;45490;-82
2021/08/18 07:59:30;;;;;;;;;10.33;10.33;;;;;;;;5165199;27;45671;-81
2021/08/18 08:01:55;;;;;;;;;9.67;9.67;;;;;;;;5164376;27;45382;-81
2021/08/18 08:04:21;;;;;;;;;10.67;10.00;;;;;;;;5163319;27;45307;-82
2021/08/18 08:06:46;;;;;;;;;11.00;11.00;;;;;;;;5164564;27;45560;-83
2021/08/18 08:09:12;;;;;;;;;11.33;11.33;;;;;;;;5165343;27;45591;-82
2021/08/18 08:11:37;;;;;;;;;12.00;9.33;;;;;;;;5165685;27;45277;-81
2021/08/18 08:14:03;;;;;;;;;9.00;9.00;;;;;;;;5147297;27;45319;-80
2021/08/18 08:16:28;;;;;;;;;11.33;10.00;;;;;;;;5146645;27;45288;-76
2021/08/18 08:18:53;;;;;;;;;8.33;8.33;;;;;;;;5164670;27;45196;-79
2021/08/18 08:21:19;;;;;;;;;11.33;11.33;;;;;;;;5163248;27;45510;-79
2021/08/18 08:23:44;;;;;;;;;9.00;9.00;;;;;;;;5165578;27;45149;-78
2021/08/18 08:26:10;;;;;;;;;11.33;10.00;;;;;;;;5164635;27;45248;-77
2021/08/18 08:28:35;;;;;;;;;11.33;11.33;;;;;;;;5164474;27;45254;-77
2021/08/18 08:31:00;;;;;;;;;13.00;11.33;;;;;;;;5164271;27;45227;-76
2021/08/18 08:33:26;;;;;;;;;9.67;9.00;;;;;;;;5164635;27;45250;-75
2021/08/18 08:35:51;;;;;;;;;11.00;10.67;;;;;;;;5148405;27;45206;-77
2021/08/18 08:38:17;;;;;;;;;7.67;7.67;;;;;;;;5144820;27;46298;-79
2021/08/18 08:40:46;;;;;;;;;12.67;11.33;;;;;;;;5165326;27;45752;-77
2021/08/18 08:43:19;;;;;;;;;8.33;8.33;;;;;;;;5164769;27;45490;-77
2021/08/18 08:45:46;;;;;;;;;11.33;11.33;;;;;;;;5164883;27;45456;-76
2021/08/18 08:48:16;;;;;;;;;10.00;10.00;;;;;;;;5143958;27;46719;-78
2021/08/18 08:50:43;;;;;;;;;8.67;8.33;;;;;;;;5170731;27;45332;-77
2021/08/18 08:53:08;;;;;;;;;9.33;9.33;;;;;;;;5172310;27;45647;-77
2021/08/18 08:55:33;;;;;;;;;12.00;12.00;;;;;;;;5170133;27;45336;-76
2021/08/18 08:57:59;;;;;;;;;12.50;12.00;;;;;;;;5149978;27;47007;-77
2021/08/18 09:00:25;;;;;;;;;12.33;8.67;;;;;;;;5162552;27;45502;-77
2021/08/18 09:03:10;;;;;;;;;9.67;9.67;;;;;;;;5136240;27;45369;-77
2021/08/18 09:05:36;;;;;;;;;10.00;9.67;;;;;;;;5153302;27;45270;-75
2021/08/18 09:08:01;;;;;;;;;13.67;12.00;;;;;;;;5143101;27;46684;-75
2021/08/18 09:10:27;;;;;;;;;10.00;10.00;;;;;;;;5153119;27;45259;-73
2021/08/18 09:13:07;;;;;;;;;11.67;11.00;;;;;;;;5153597;27;45341;-75
2021/08/18 09:15:33;;;;;;;;;9.00;9.00;;;;;;;;5151965;27;45448;-74
2021/08/18 09:17:58;;;;;;;;;10.00;9.00;;;;;;;;5153028;27;45490;-75
2021/08/18 09:20:25;;;;;;;;;10.33;8.67;;;;;;;;5152009;27;45474;-75
2021/08/18 09:22:52;;;;;;;;;8.33;7.67;;;;;;;;5151178;27;45529;-79
2021/08/18 09:25:19;;;;;;;;;11.00;11.00;;;;;;;;5152156;27;45398;-80
2021/08/18 09:27:49;;;;;;;;;10.00;10.00;;;;;;;;5145498;27;45349;-78
2021/08/18 09:30:18;;;;;;;;;9.00;8.00;;;;;;;;5154278;27;45476;-78
2021/08/18 09:32:44;;;;;;;;;9.00;9.00;;;;;;;;5164651;27;45287;-78
2021/08/18 09:35:11;;;;;;;;;10.00;9.33;;;;;;;;5166687;27;45307;-77
2021/08/18 09:37:38;;;;;;;;;8.33;8.33;;;;;;;;5163933;27;45335;-78
2021/08/18 09:40:15;;;;;;;;;10.33;10.33;;;;;;;;5158425;27;45445;-77
2021/08/18 09:42:40;;;;;;;;;12.33;11.33;;;;;;;;5157183;27;45386;-75
2021/08/18 09:45:19;;;;;;;;;10.00;10.00;;;;;;;;5152663;27;45619;-77
2021/08/18 09:47:52;;;;;;;;;8.67;8.33;;;;;;;;5153969;27;45428;-76
2021/08/18 09:50:17;;;;;;;;;10.00;7.33;;;;;;;;5152345;27;45446;-76
2021/08/18 09:52:43;;;;;;;;;7.00;7.00;;;;;;;;5153309;27;45597;-78
2021/08/18 09:55:10;;;;;;;;;11.00;10.33;;;;;;;;5154370;27;45642;-78
2021/08/18 09:57:37;;;;;;;;;8.67;8.33;;;;;;;;5149655;27;45361;-78
2021/08/18 10:00:03;;;;;;;;;8.33;8.33;;;;;;;;5149935;27;45357;-77
2021/08/18 10:02:29;;;;;;;;;11.00;11.00;;;;;;;;5143916;27;45332;-77
2021/08/18 10:04:55;;;;;;;;;19.33;17.67;;;;;;;;5145533;27;45335;-78
2021/08/18 10:07:21;;;;;;;;;16.00;16.00;;;;;;;;5153820;27;45592;-79
2021/08/18 10:09:47;;;;;;;;;13.00;11.00;;;;;;;;5153913;27;45267;-80
2021/08/18 10:12:12;;;;;;;;;8.00;6.00;;;;;;;;5129098;27;45353;-80
2021/08/18 10:14:38;;;;;;;;;11.67;10.00;;;;;;;;5149765;27;45431;-80
2021/08/18 10:17:03;;;;;;;;;11.67;9.00;;;;;;;;5151985;27;45250;-80
2021/08/18 10:19:28;;;;;;;;;8.00;8.00;;;;;;;;5154863;27;45200;-80
2021/08/18 10:22:00;;;;;;;;;6.33;6.33;;;;;;;;5148192;27;45326;-79
2021/08/18 10:24:32;;;;;;;;;8.67;8.00;;;;;;;;5146566;27;45266;-81
2021/08/18 10:26:58;;;;;;;;;8.33;8.33;;;;;;;;5144303;27;45389;-79
2021/08/18 10:29:30;;;;;;;;;8.33;7.33;;;;;;;;5144343;27;45368;-80
2021/08/18 10:31:56;;;;;;;;;10.33;9.33;;;;;;;;5163151;27;45269;-79
2021/08/18 10:34:21;;;;;;;;;7.67;7.67;;;;;;;;5143873;27;45330;-80
2021/08/18 10:37:01;;;;;;;;;13.33;11.33;;;;;;;;5162130;27;45186;-81
2021/08/18 10:39:28;;;;;;;;;8.00;8.00;;;;;;;;5162827;27;45364;-79
2021/08/18 10:42:04;;;;;;;;;9.00;9.00;;;;;;;;5162622;27;45275;-78
2021/08/18 10:44:46;;;;;;;;;11.00;9.00;;;;;;;;5162766;27;45334;-80
2021/08/18 10:47:15;;;;;;;;;12.00;9.33;;;;;;;;5162296;27;45320;-79
2021/08/18 10:49:41;;;;;;;;;8.00;8.00;;;;;;;;5143716;27;45333;-81
2021/08/18 10:52:07;;;;;;;;;7.67;7.67;;;;;;;;5163698;27;45531;-80
2021/08/18 10:54:32;;;;;;;;;7.67;7.67;;;;;;;;5162177;27;45425;-78
2021/08/18 10:56:58;;;;;;;;;6.67;6.67;;;;;;;;5163043;27;46290;-80
2021/08/18 10:59:36;;;;;;;;;8.00;8.00;;;;;;;;5160497;27;45309;-78
2021/08/18 11:02:02;;;;;;;;;5.33;5.33;;;;;;;;5142685;27;46558;-76
2021/08/18 11:04:43;;;;;;;;;8.00;8.00;;;;;;;;5162205;27;45493;-80
2021/08/18 11:07:08;;;;;;;;;6.33;6.33;;;;;;;;5162557;27;45350;-78
2021/08/18 11:09:46;;;;;;;;;9.00;7.67;;;;;;;;5143192;27;45352;-81
2021/08/18 11:12:31;;;;;;;;;6.00;5.00;;;;;;;;5162751;27;45319;-80
2021/08/18 11:14:57;;;;;;;;;7.00;6.00;;;;;;;;5155849;27;45329;-78
2021/08/18 11:17:23;;;;;;;;;7.00;7.00;;;;;;;;5145965;27;46181;-77
2021/08/18 11:19:51;;;;;;;;;4.33;4.33;;;;;;;;5163317;27;45360;-79
2021/08/18 11:22:17;;;;;;;;;5.67;5.67;;;;;;;;5161793;27;45610;-79
2021/08/18 11:24:42;;;;;;;;;6.00;5.00;;;;;;;;5128760;27;46252;-79
2021/08/18 11:27:08;;;;;;;;;4.00;4.00;;;;;;;;5139729;27;47582;-80
2021/08/18 11:29:35;;;;;;;;;5.00;5.00;;;;;;;;5164549;27;45388;-80
2021/08/18 11:32:00;;;;;;;;;3.67;3.67;;;;;;;;5144836;27;45319;-80
2021/08/18 11:34:27;;;;;;;;;5.67;5.67;;;;;;;;5160667;27;45461;-79
2021/08/18 11:37:00;;;;;;;;;5.67;5.67;;;;;;;;5150863;27;46083;-79
2021/08/18 11:39:25;;;;;;;;;6.00;6.00;;;;;;;;5162338;27;45307;-79
2021/08/18 11:41:50;;;;;;;;;5.00;3.00;;;;;;;;5161379;27;45534;-80
2021/08/18 11:44:24;;;;;;;;;8.00;6.00;;;;;;;;5162976;27;45494;-80
2021/08/18 11:46:50;;;;;;;;;5.00;5.00;;;;;;;;5157324;27;45525;-82
2021/08/18 11:49:15;;;;;;;;;4.67;4.67;;;;;;;;5142657;27;45409;-80
2021/08/18 11:51:46;;;;;;;;;5.00;5.00;;;;;;;;5144667;27;45596;-80
2021/08/18 11:54:11;;;;;;;;;6.00;5.00;;;;;;;;5161580;27;45385;-80
2021/08/18 11:56:37;;;;;;;;;6.00;4.33;;;;;;;;5161242;27;45292;-81
2021/08/18 11:59:03;;;;;;;;;4.00;4.00;;;;;;;;5142577;27;45340;-81
2021/08/18 12:01:29;;;;;;;;;5.00;5.00;;;;;;;;5162132;27;45355;-81
2021/08/18 12:03:54;;;;;;;;;6.00;6.00;;;;;;;;5165932;27;45557;-81
2021/08/18 12:06:31;;;;;;;;;7.33;7.33;;;;;;;;5145089;27;46734;-81
2021/08/18 12:08:57;;;;;;;;;5.67;5.67;;;;;;;;5162659;27;45371;-81
2021/08/18 12:11:30;;;;;;;;;7.00;5.33;;;;;;;;5139803;27;45349;-81
2021/08/18 12:13:55;;;;;;;;;8.00;8.00;;;;;;;;5161742;27;45513;-81
2021/08/18 12:16:24;;;;;;;;;5.33;5.33;;;;;;;;5161901;27;46199;-81
2021/08/18 12:18:51;;;;;;;;;8.67;7.67;;;;;;;;5163838;27;45229;-80
2021/08/18 12:21:25;;;;;;;;;6.67;6.67;;;;;;;;5143783;27;45183;-81
2021/08/18 12:23:52;;;;;;;;;7.00;6.67;;;;;;;;5145654;27;45553;-79
2021/08/18 12:26:33;;;;;;;;;7.67;7.67;;;;;;;;5149207;27;47276;-79
2021/08/18 12:29:00;;;;;;;;;6.00;6.00;;;;;;;;5166112;27;45193;-81
2021/08/18 12:31:26;;;;;;;;;7.00;7.00;;;;;;;;5147056;27;45412;-80
2021/08/18 12:34:05;;;;;;;;;7.00;7.00;;;;;;;;5147175;27;45921;-80
2021/08/18 12:36:30;;;;;;;;;7.00;7.00;;;;;;;;5167546;27;45434;-80
2021/08/18 12:38:55;;;;;;;;;8.00;7.00;;;;;;;;5166168;27;45300;-79
2021/08/18 12:41:25;;;;;;;;;9.33;9.00;;;;;;;;5148169;27;45358;-80
2021/08/18 12:44:04;;;;;;;;;8.00;8.00;;;;;;;;5147610;27;46903;-83
2021/08/18 12:46:33;;;;;;;;;6.67;6.00;;;;;;;;5144885;27;47620;-79
2021/08/18 12:49:17;;;;;;;;;9.33;9.33;;;;;;;;5163774;27;45380;-78
2021/08/18 12:51:42;;;;;;;;;9.00;8.00;;;;;;;;5165128;27;45478;-76
2021/08/18 12:54:08;;;;;;;;;8.00;8.00;;;;;;;;5164732;27;45279;-79
2021/08/18 12:56:33;;;;;;;;;7.00;7.00;;;;;;;;5165821;27;45295;-79
2021/08/18 12:58:58;;;;;;;;;9.67;9.67;;;;;;;;5164875;27;45584;-78
2021/08/18 13:01:24;;;;;;;;;6.67;6.67;;;;;;;;5146432;27;45318;-78
2021/08/18 13:03:50;;;;;;;;;8.67;8.67;;;;;;;;5165516;27;45235;-78
2021/08/18 13:06:15;;;;;;;;;8.67;8.00;;;;;;;;5166576;27;45336;-79
2021/08/18 13:08:40;;;;;;;;;11.67;10.67;;;;;;;;5165868;27;45216;-78
2021/08/18 13:11:06;;;;;;;;;9.67;8.33;;;;;;;;5167047;27;45326;-78
2021/08/18 13:13:31;;;;;;;;;10.00;10.00;;;;;;;;5164799;27;45560;-80
2021/08/18 13:15:56;;;;;;;;;10.67;9.33;;;;;;;;5164858;27;45183;-80
2021/08/18 13:18:22;;;;;;;;;10.00;9.00;;;;;;;;5164883;27;45385;-77
2021/08/18 13:20:47;;;;;;;;;9.67;9.33;;;;;;;;5163942;27;45283;-78
2021/08/18 13:23:12;;;;;;;;;10.33;10.00;;;;;;;;5168324;27;45188;-79
2021/08/18 13:25:38;;;;;;;;;11.00;11.00;;;;;;;;5166817;27;46356;-80
2021/08/18 13:28:04;;;;;;;;;10.00;10.00;;;;;;;;5158764;27;45287;-78
2021/08/18 13:30:29;;;;;;;;;11.67;10.00;;;;;;;;5146316;27;45317;-78
2021/08/18 13:32:54;;;;;;;;;9.00;9.00;;;;;;;;5141467;27;45449;-79
2021/08/18 13:35:21;;;;;;;;;9.33;9.33;;;;;;;;5142510;27;45395;-77
2021/08/18 13:37:46;;;;;;;;;7.00;7.00;;;;;;;;5146229;27;45314;-77
2021/08/18 13:40:12;;;;;;;;;13.00;13.00;;;;;;;;5146957;27;45277;-80
2021/08/18 13:42:37;;;;;;;;;12.33;11.67;;;;;;;;5144195;27;45261;-78
2021/08/18 13:45:02;;;;;;;;;11.33;10.67;;;;;;;;5143894;27;45329;-79
2021/08/18 13:47:28;;;;;;;;;13.67;13.67;;;;;;;;5123861;27;45736;-77
2021/08/18 13:49:53;;;;;;;;;11.00;10.00;;;;;;;;5142500;27;45376;-78
2021/08/18 13:52:18;;;;;;;;;10.67;10.67;;;;;;;;5148441;27;45477;-77
2021/08/18 13:54:44;;;;;;;;;10.33;10.33;;;;;;;;5163358;27;46033;-77
2021/08/18 13:57:09;;;;;;;;;11.00;11.00;;;;;;;;5163903;27;45229;-76
2021/08/18 13:59:34;;;;;;;;;9.67;9.67;;;;;;;;5164613;27;45385;-78
2021/08/18 14:02:00;;;;;;;;;9.00;9.00;;;;;;;;5163814;27;45311;-79
2021/08/18 14:04:25;;;;;;;;;11.00;10.00;;;;;;;;5162151;27;46076;-78
2021/08/18 14:06:51;;;;;;;;;10.67;10.00;;;;;;;;5163438;27;45307;-80
2021/08/18 14:09:16;;;;;;;;;9.00;9.00;;;;;;;;5163715;27;45201;-79
2021/08/18 14:11:41;;;;;;;;;8.33;8.33;;;;;;;;5163590;27;45262;-78
2021/08/18 14:14:07;;;;;;;;;9.00;9.00;;;;;;;;5163776;27;45901;-77
2021/08/18 14:16:33;;;;;;;;;11.00;11.00;;;;;;;;5163410;27;45273;-78
2021/08/18 14:18:58;;;;;;;;;9.67;9.67;;;;;;;;5164998;27;45432;-78
2021/08/18 14:21:23;;;;;;;;;13.00;11.33;;;;;;;;5163256;27;45315;-79
2021/08/18 14:23:48;;;;;;;;;10.33;9.67;;;;;;;;5163013;27;46207;-79
2021/08/18 14:26:14;;;;;;;;;13.00;12.67;;;;;;;;5163056;27;45462;-78
2021/08/18 14:28:39;;;;;;;;;11.00;11.00;;;;;;;;5159124;27;45417;-77
2021/08/18 14:31:05;;;;;;;;;9.00;9.00;;;;;;;;5151895;27;45287;-77